Main page
Satellite images 15-day forecastsClimateMarine weather Cyclones Lightning AirportsFAQ Newsletter About
Weather : Europe Africa North America South America Asia Australia-Oceania Others
Languages Contact

Lisbon, Portugal

Portela

latitude: 38-46N, longitude: 009-08W, elevation: 114 m


METAR: LPPT 201100Z 07011KT CAVOK 24/14 Q1019
TAF: LPPT 200500Z 2006/2112 07010KT CAVOK BECMG 2017/2019 34005KT BECMG 2021/2023 04008KT

Time: 12:19 (11:19 UTC)

Current weather observation

The report was made 19 minutes ago, at 11:00 UTC  
Wind 11 kt from the East/Northeast
Temperature 24°C
Humidity 54%
Pressure 1019 hPa
Visibility 10 km or more
no clouds below 1500 m and no cumulonimbus

Change units

Forecast

The report was made 06 hours and 19 minutes ago, at 05:00 UTC  
Forecast valid from 20 at 06 UTC to 21 at 12 UTC
Wind 10 kt from the East/Northeast
Visibility 10 km or more
no clouds below 1500 m and no cumulonimbus
Becoming
from 20 at 17 UTC to 20 at 19 UTC
Wind 05 kt from the North/Northwest
Becoming
from 20 at 21 UTC to 20 at 23 UTC
Wind 08 kt from the Northeast
The information on this site is subject to a disclaimer
Weather : Europe Africa North America South America Asia Australia-Oceania Others
Satellite images 15-day forecastsClimateMarine weather Cyclones Lightning AirportsFAQ Languages Contact Newsletter About